sensor_id;sensor_type;location;lat;lon;timestamp;temperature;humidity
20422;DHT22;10370;53.102;18.034;2023-09-08T00:02:04;15.10;99.90
20422;DHT22;10370;53.102;18.034;2023-09-08T00:07:27;15.00;99.90
20422;DHT22;10370;53.102;18.034;2023-09-08T00:12:53;14.90;99.90
20422;DHT22;10370;53.102;18.034;2023-09-08T00:18:15;14.80;99.90
20422;DHT22;10370;53.102;18.034;2023-09-08T00:23:38;14.60;99.90
20422;DHT22;10370;53.102;18.034;2023-09-08T00:29:00;14.60;99.90
20422;DHT22;10370;53.102;18.034;2023-09-08T00:34:23;14.60;99.90
20422;DHT22;10370;53.102;18.034;2023-09-08T00:39:46;14.40;99.90
20422;DHT22;10370;53.102;18.034;2023-09-08T00:45:08;14.40;99.90
20422;DHT22;10370;53.102;18.034;2023-09-08T00:50:31;14.40;99.90
20422;DHT22;10370;53.102;18.034;2023-09-08T00:55:54;14.30;99.90
20422;DHT22;10370;53.102;18.034;2023-09-08T01:01:18;14.30;99.90
20422;DHT22;10370;53.102;18.034;2023-09-08T01:06:42;14.30;99.90
20422;DHT22;10370;53.102;18.034;2023-09-08T01:12:07;14.30;99.90
20422;DHT22;10370;53.102;18.034;2023-09-08T01:17:29;14.30;99.90
20422;DHT22;10370;53.102;18.034;2023-09-08T01:22:57;14.40;99.90
20422;DHT22;10370;53.102;18.034;2023-09-08T01:28:25;14.30;99.90
20422;DHT22;10370;53.102;18.034;2023-09-08T01:33:49;14.20;99.90
20422;DHT22;10370;53.102;18.034;2023-09-08T01:39:12;14.10;99.90
20422;DHT22;10370;53.102;18.034;2023-09-08T01:44:34;14.10;99.90
20422;DHT22;10370;53.102;18.034;2023-09-08T01:49:58;14.10;99.90
20422;DHT22;10370;53.102;18.034;2023-09-08T01:55:21;14.30;99.90
20422;DHT22;10370;53.102;18.034;2023-09-08T02:00:49;14.20;99.90
20422;DHT22;10370;53.102;18.034;2023-09-08T02:06:11;14.10;99.90
20422;DHT22;10370;53.102;18.034;2023-09-08T02:11:34;14.00;99.90
20422;DHT22;10370;53.102;18.034;2023-09-08T02:16:57;13.80;99.90
20422;DHT22;10370;53.102;18.034;2023-09-08T02:22:20;13.80;99.90
20422;DHT22;10370;53.102;18.034;2023-09-08T02:27:42;13.80;99.90
20422;DHT22;10370;53.102;18.034;2023-09-08T02:33:05;13.80;99.90
20422;DHT22;10370;53.102;18.034;2023-09-08T02:38:28;13.60;99.90
20422;DHT22;10370;53.102;18.034;2023-09-08T02:43:51;13.60;99.90
20422;DHT22;10370;53.102;18.034;2023-09-08T02:49:13;13.50;99.90
20422;DHT22;10370;53.102;18.034;2023-09-08T02:54:36;13.50;99.90
20422;DHT22;10370;53.102;18.034;2023-09-08T02:59:59;13.50;99.90
20422;DHT22;10370;53.102;18.034;2023-09-08T03:05:21;13.40;99.90
20422;DHT22;10370;53.102;18.034;2023-09-08T03:10:44;13.30;99.90
20422;DHT22;10370;53.102;18.034;2023-09-08T03:16:08;13.10;99.90
20422;DHT22;10370;53.102;18.034;2023-09-08T03:21:31;13.20;99.90
20422;DHT22;10370;53.102;18.034;2023-09-08T03:26:54;13.10;99.90
20422;DHT22;10370;53.102;18.034;2023-09-08T03:32:16;13.10;99.90
20422;DHT22;10370;53.102;18.034;2023-09-08T03:37:39;13.00;99.90
20422;DHT22;10370;53.102;18.034;2023-09-08T03:43:02;12.80;99.90
20422;DHT22;10370;53.102;18.034;2023-09-08T03:48:25;12.70;99.90
20422;DHT22;10370;53.102;18.034;2023-09-08T03:53:48;12.70;99.90
20422;DHT22;10370;53.102;18.034;2023-09-08T03:59:10;12.60;99.90
20422;DHT22;10370;53.102;18.034;2023-09-08T04:04:33;12.50;99.90
20422;DHT22;10370;53.102;18.034;2023-09-08T04:09:58;12.50;99.90
20422;DHT22;10370;53.102;18.034;2023-09-08T04:15:21;12.40;99.90
20422;DHT22;10370;53.102;18.034;2023-09-08T04:20:44;12.40;99.90
20422;DHT22;10370;53.102;18.034;2023-09-08T04:26:06;12.40;99.90
20422;DHT22;10370;53.102;18.034;2023-09-08T04:31:29;12.50;99.90
20422;DHT22;10370;53.102;18.034;2023-09-08T04:36:51;12.50;99.90
20422;DHT22;10370;53.102;18.034;2023-09-08T04:42:14;12.60;99.90
20422;DHT22;10370;53.102;18.034;2023-09-08T04:47:39;12.80;99.90
20422;DHT22;10370;53.102;18.034;2023-09-08T04:53:02;13.40;99.90
20422;DHT22;10370;53.102;18.034;2023-09-08T04:58:25;15.60;99.90
20422;DHT22;10370;53.102;18.034;2023-09-08T05:03:48;17.40;99.90
20422;DHT22;10370;53.102;18.034;2023-09-08T05:09:11;19.10;99.90
20422;DHT22;10370;53.102;18.034;2023-09-08T05:14:39;19.50;99.90
20422;DHT22;10370;53.102;18.034;2023-09-08T05:20:05;19.60;99.90
20422;DHT22;10370;53.102;18.034;2023-09-08T05:25:28;20.20;99.90
20422;DHT22;10370;53.102;18.034;2023-09-08T05:30:53;20.40;99.90
20422;DHT22;10370;53.102;18.034;2023-09-08T05:36:16;20.40;99.90
20422;DHT22;10370;53.102;18.034;2023-09-08T05:41:39;18.90;99.90
20422;DHT22;10370;53.102;18.034;2023-09-08T05:47:02;17.30;99.90
20422;DHT22;10370;53.102;18.034;2023-09-08T05:52:25;16.70;99.90
20422;DHT22;10370;53.102;18.034;2023-09-08T05:57:50;16.50;99.90
20422;DHT22;10370;53.102;18.034;2023-09-08T06:03:13;16.70;99.90
20422;DHT22;10370;53.102;18.034;2023-09-08T06:08:35;16.90;99.90
20422;DHT22;10370;53.102;18.034;2023-09-08T06:13:58;17.30;99.90
20422;DHT22;10370;53.102;18.034;2023-09-08T06:19:21;17.50;99.90
20422;DHT22;10370;53.102;18.034;2023-09-08T06:24:44;17.50;99.90
20422;DHT22;10370;53.102;18.034;2023-09-08T06:30:02;17.70;99.90
20422;DHT22;10370;53.102;18.034;2023-09-08T06:35:26;17.80;99.90
20422;DHT22;10370;53.102;18.034;2023-09-08T06:40:49;17.80;99.90
20422;DHT22;10370;53.102;18.034;2023-09-08T06:46:17;18.00;99.90
20422;DHT22;10370;53.102;18.034;2023-09-08T06:51:43;18.10;99.90
20422;DHT22;10370;53.102;18.034;2023-09-08T06:57:06;18.30;99.90
20422;DHT22;10370;53.102;18.034;2023-09-08T07:02:28;18.50;99.90
20422;DHT22;10370;53.102;18.034;2023-09-08T07:07:51;18.70;99.90
20422;DHT22;10370;53.102;18.034;2023-09-08T07:13:14;18.90;99.90
20422;DHT22;10370;53.102;18.034;2023-09-08T07:18:36;19.10;99.90
20422;DHT22;10370;53.102;18.034;2023-09-08T07:24:00;19.30;99.90
20422;DHT22;10370;53.102;18.034;2023-09-08T07:29:22;19.50;99.90
20422;DHT22;10370;53.102;18.034;2023-09-08T07:34:45;19.70;99.90
20422;DHT22;10370;53.102;18.034;2023-09-08T07:40:10;19.90;99.90
20422;DHT22;10370;53.102;18.034;2023-09-08T07:45:32;20.10;99.90
20422;DHT22;10370;53.102;18.034;2023-09-08T07:50:55;20.20;99.90
20422;DHT22;10370;53.102;18.034;2023-09-08T07:56:18;20.40;99.90
20422;DHT22;10370;53.102;18.034;2023-09-08T08:01:41;20.50;99.90
20422;DHT22;10370;53.102;18.034;2023-09-08T08:07:03;20.80;99.90
20422;DHT22;10370;53.102;18.034;2023-09-08T08:12:26;20.90;99.90
20422;DHT22;10370;53.102;18.034;2023-09-08T08:17:49;21.20;99.90
20422;DHT22;10370;53.102;18.034;2023-09-08T08:23:12;21.40;99.90
20422;DHT22;10370;53.102;18.034;2023-09-08T08:28:34;21.40;99.90
20422;DHT22;10370;53.102;18.034;2023-09-08T08:33:58;21.60;99.90
20422;DHT22;10370;53.102;18.034;2023-09-08T08:39:20;21.90;99.90
20422;DHT22;10370;53.102;18.034;2023-09-08T08:44:43;22.00;99.90
20422;DHT22;10370;53.102;18.034;2023-09-08T08:50:08;22.10;99.90
20422;DHT22;10370;53.102;18.034;2023-09-08T08:55:34;22.40;99.90
20422;DHT22;10370;53.102;18.034;2023-09-08T09:00:59;22.50;99.90
20422;DHT22;10370;53.102;18.034;2023-09-08T09:06:22;22.70;99.90
20422;DHT22;10370;53.102;18.034;2023-09-08T09:11:45;23.00;99.90
20422;DHT22;10370;53.102;18.034;2023-09-08T09:17:10;23.00;99.90
20422;DHT22;10370;53.102;18.034;2023-09-08T09:22:37;23.00;99.90
20422;DHT22;10370;53.102;18.034;2023-09-08T09:28:01;23.10;99.90
20422;DHT22;10370;53.102;18.034;2023-09-08T09:33:24;23.40;99.90
20422;DHT22;10370;53.102;18.034;2023-09-08T09:38:47;23.70;99.90
20422;DHT22;10370;53.102;18.034;2023-09-08T09:44:10;23.90;99.90
20422;DHT22;10370;53.102;18.034;2023-09-08T09:49:44;24.00;99.90
20422;DHT22;10370;53.102;18.034;2023-09-08T09:55:08;24.10;99.90
20422;DHT22;10370;53.102;18.034;2023-09-08T10:00:31;24.20;99.90
20422;DHT22;10370;53.102;18.034;2023-09-08T10:05:56;24.20;99.90
20422;DHT22;10370;53.102;18.034;2023-09-08T10:11:21;24.10;99.90
20422;DHT22;10370;53.102;18.034;2023-09-08T10:16:45;23.90;99.90
20422;DHT22;10370;53.102;18.034;2023-09-08T10:22:15;24.10;99.90
20422;DHT22;10370;53.102;18.034;2023-09-08T10:27:49;24.30;99.90
20422;DHT22;10370;53.102;18.034;2023-09-08T10:33:11;24.30;99.90
20422;DHT22;10370;53.102;18.034;2023-09-08T10:38:35;24.30;99.90
20422;DHT22;10370;53.102;18.034;2023-09-08T10:44:02;24.50;99.90
20422;DHT22;10370;53.102;18.034;2023-09-08T10:49:27;24.40;99.90
20422;DHT22;10370;53.102;18.034;2023-09-08T10:54:51;24.30;99.90
20422;DHT22;10370;53.102;18.034;2023-09-08T11:00:17;24.50;99.90
20422;DHT22;10370;53.102;18.034;2023-09-08T11:05:43;24.60;99.90
20422;DHT22;10370;53.102;18.034;2023-09-08T11:11:06;24.60;99.90
20422;DHT22;10370;53.102;18.034;2023-09-08T11:16:29;24.80;99.90
20422;DHT22;10370;53.102;18.034;2023-09-08T11:21:54;24.80;99.90
20422;DHT22;10370;53.102;18.034;2023-09-08T11:27:18;25.00;99.90
20422;DHT22;10370;53.102;18.034;2023-09-08T11:32:40;24.80;99.90
20422;DHT22;10370;53.102;18.034;2023-09-08T11:38:03;24.70;99.90
20422;DHT22;10370;53.102;18.034;2023-09-08T11:43:27;24.80;99.90
20422;DHT22;10370;53.102;18.034;2023-09-08T11:48:50;24.90;99.90
20422;DHT22;10370;53.102;18.034;2023-09-08T11:54:12;25.00;99.90
20422;DHT22;10370;53.102;18.034;2023-09-08T11:59:35;24.90;99.90
20422;DHT22;10370;53.102;18.034;2023-09-08T12:04:58;25.10;99.90
20422;DHT22;10370;53.102;18.034;2023-09-08T12:10:21;25.30;99.90
20422;DHT22;10370;53.102;18.034;2023-09-08T12:15:44;25.40;99.90
20422;DHT22;10370;53.102;18.034;2023-09-08T12:21:06;25.40;99.90
20422;DHT22;10370;53.102;18.034;2023-09-08T12:26:29;25.40;99.90
20422;DHT22;10370;53.102;18.034;2023-09-08T12:31:55;25.30;99.90
20422;DHT22;10370;53.102;18.034;2023-09-08T12:37:33;25.20;99.90
20422;DHT22;10370;53.102;18.034;2023-09-08T12:42:56;25.20;99.90
20422;DHT22;10370;53.102;18.034;2023-09-08T12:48:24;25.20;99.90
20422;DHT22;10370;53.102;18.034;2023-09-08T12:53:47;25.50;99.90
20422;DHT22;10370;53.102;18.034;2023-09-08T12:59:09;25.40;99.90
20422;DHT22;10370;53.102;18.034;2023-09-08T13:04:32;25.30;99.90
20422;DHT22;10370;53.102;18.034;2023-09-08T13:09:55;25.50;99.90
20422;DHT22;10370;53.102;18.034;2023-09-08T13:15:17;25.70;99.90
20422;DHT22;10370;53.102;18.034;2023-09-08T13:20:40;25.70;99.90
20422;DHT22;10370;53.102;18.034;2023-09-08T13:26:03;25.70;99.90
20422;DHT22;10370;53.102;18.034;2023-09-08T13:31:25;25.70;99.90
20422;DHT22;10370;53.102;18.034;2023-09-08T13:36:48;25.90;99.90
20422;DHT22;10370;53.102;18.034;2023-09-08T13:42:11;25.80;99.90
20422;DHT22;10370;53.102;18.034;2023-09-08T13:47:33;25.80;99.90
20422;DHT22;10370;53.102;18.034;2023-09-08T13:53:01;25.80;99.90
20422;DHT22;10370;53.102;18.034;2023-09-08T13:58:25;25.80;99.90
20422;DHT22;10370;53.102;18.034;2023-09-08T14:03:48;25.80;99.90
20422;DHT22;10370;53.102;18.034;2023-09-08T14:09:17;25.80;99.90
20422;DHT22;10370;53.102;18.034;2023-09-08T14:14:59;25.90;99.90
20422;DHT22;10370;53.102;18.034;2023-09-08T14:20:22;26.00;99.90
20422;DHT22;10370;53.102;18.034;2023-09-08T14:25:44;26.00;99.90
20422;DHT22;10370;53.102;18.034;2023-09-08T14:31:07;26.00;99.90
20422;DHT22;10370;53.102;18.034;2023-09-08T14:36:29;26.00;99.90
20422;DHT22;10370;53.102;18.034;2023-09-08T14:41:52;26.00;99.90
20422;DHT22;10370;53.102;18.034;2023-09-08T14:47:16;26.00;99.90
20422;DHT22;10370;53.102;18.034;2023-09-08T14:52:38;26.00;99.90
20422;DHT22;10370;53.102;18.034;2023-09-08T14:58:02;25.90;99.90
20422;DHT22;10370;53.102;18.034;2023-09-08T15:03:25;25.80;99.90
20422;DHT22;10370;53.102;18.034;2023-09-08T15:08:49;25.80;99.90
20422;DHT22;10370;53.102;18.034;2023-09-08T15:14:12;25.70;99.90
20422;DHT22;10370;53.102;18.034;2023-09-08T15:19:35;25.70;99.90
20422;DHT22;10370;53.102;18.034;2023-09-08T15:24:57;25.70;99.90
20422;DHT22;10370;53.102;18.034;2023-09-08T15:30:20;25.70;99.90
20422;DHT22;10370;53.102;18.034;2023-09-08T15:35:43;25.70;99.90
20422;DHT22;10370;53.102;18.034;2023-09-08T15:46:28;25.50;99.90
20422;DHT22;10370;53.102;18.034;2023-09-08T15:51:51;25.40;99.90
20422;DHT22;10370;53.102;18.034;2023-09-08T15:57:25;25.40;99.90
20422;DHT22;10370;53.102;18.034;2023-09-08T16:02:48;25.30;99.90
20422;DHT22;10370;53.102;18.034;2023-09-08T16:08:10;25.20;99.90
20422;DHT22;10370;53.102;18.034;2023-09-08T16:13:33;25.10;99.90
20422;DHT22;10370;53.102;18.034;2023-09-08T16:18:56;25.00;99.90
20422;DHT22;10370;53.102;18.034;2023-09-08T16:24:18;24.90;99.90
20422;DHT22;10370;53.102;18.034;2023-09-08T16:29:41;24.70;99.90
20422;DHT22;10370;53.102;18.034;2023-09-08T16:35:04;24.60;99.90
20422;DHT22;10370;53.102;18.034;2023-09-08T16:40:27;24.50;99.90
20422;DHT22;10370;53.102;18.034;2023-09-08T16:45:49;24.30;99.90
20422;DHT22;10370;53.102;18.034;2023-09-08T16:51:12;24.10;99.90
20422;DHT22;10370;53.102;18.034;2023-09-08T16:56:35;23.90;99.90
20422;DHT22;10370;53.102;18.034;2023-09-08T17:01:57;23.70;99.90
20422;DHT22;10370;53.102;18.034;2023-09-08T17:07:20;23.50;99.90
20422;DHT22;10370;53.102;18.034;2023-09-08T17:12:43;23.10;99.90
20422;DHT22;10370;53.102;18.034;2023-09-08T17:18:06;22.90;99.90
20422;DHT22;10370;53.102;18.034;2023-09-08T17:23:28;22.60;99.90
20422;DHT22;10370;53.102;18.034;2023-09-08T17:28:52;22.30;99.90
20422;DHT22;10370;53.102;18.034;2023-09-08T17:34:18;22.30;99.90
20422;DHT22;10370;53.102;18.034;2023-09-08T17:39:42;22.10;99.90
20422;DHT22;10370;53.102;18.034;2023-09-08T17:45:05;21.70;99.90
20422;DHT22;10370;53.102;18.034;2023-09-08T17:50:28;21.50;99.90
20422;DHT22;10370;53.102;18.034;2023-09-08T17:55:51;21.20;99.90
20422;DHT22;10370;53.102;18.034;2023-09-08T18:01:14;21.00;99.90
20422;DHT22;10370;53.102;18.034;2023-09-08T18:06:36;20.70;99.90
20422;DHT22;10370;53.102;18.034;2023-09-08T18:11:59;20.70;99.90
20422;DHT22;10370;53.102;18.034;2023-09-08T18:17:22;20.60;99.90
20422;DHT22;10370;53.102;18.034;2023-09-08T18:22:44;20.50;99.90
20422;DHT22;10370;53.102;18.034;2023-09-08T18:28:06;20.20;99.90
20422;DHT22;10370;53.102;18.034;2023-09-08T18:33:30;20.10;99.90
20422;DHT22;10370;53.102;18.034;2023-09-08T18:38:52;19.90;99.90
20422;DHT22;10370;53.102;18.034;2023-09-08T18:44:15;19.70;99.90
20422;DHT22;10370;53.102;18.034;2023-09-08T18:49:38;19.50;99.90
20422;DHT22;10370;53.102;18.034;2023-09-08T18:55:00;19.30;99.90
20422;DHT22;10370;53.102;18.034;2023-09-08T19:00:23;19.20;99.90
20422;DHT22;10370;53.102;18.034;2023-09-08T19:05:45;19.10;99.90
20422;DHT22;10370;53.102;18.034;2023-09-08T19:11:08;19.00;99.90
20422;DHT22;10370;53.102;18.034;2023-09-08T19:16:31;18.80;99.90
20422;DHT22;10370;53.102;18.034;2023-09-08T19:21:55;18.70;99.90
20422;DHT22;10370;53.102;18.034;2023-09-08T19:27:18;18.60;99.90
20422;DHT22;10370;53.102;18.034;2023-09-08T19:32:41;18.50;99.90
20422;DHT22;10370;53.102;18.034;2023-09-08T19:38:03;18.30;99.90
20422;DHT22;10370;53.102;18.034;2023-09-08T19:43:27;18.30;99.90
20422;DHT22;10370;53.102;18.034;2023-09-08T19:48:51;18.10;99.90
20422;DHT22;10370;53.102;18.034;2023-09-08T19:54:13;18.00;99.90
20422;DHT22;10370;53.102;18.034;2023-09-08T19:59:36;17.90;99.90
20422;DHT22;10370;53.102;18.034;2023-09-08T20:05:01;17.80;99.90
20422;DHT22;10370;53.102;18.034;2023-09-08T20:10:24;17.70;99.90
20422;DHT22;10370;53.102;18.034;2023-09-08T20:15:52;17.60;99.90
20422;DHT22;10370;53.102;18.034;2023-09-08T20:21:19;17.60;99.90
20422;DHT22;10370;53.102;18.034;2023-09-08T20:26:41;17.40;99.90
20422;DHT22;10370;53.102;18.034;2023-09-08T20:32:04;17.30;99.90
20422;DHT22;10370;53.102;18.034;2023-09-08T20:37:27;17.30;99.90
20422;DHT22;10370;53.102;18.034;2023-09-08T20:42:49;17.20;99.90
20422;DHT22;10370;53.102;18.034;2023-09-08T20:48:12;17.10;99.90
20422;DHT22;10370;53.102;18.034;2023-09-08T20:53:36;17.00;99.90
20422;DHT22;10370;53.102;18.034;2023-09-08T20:58:59;16.90;99.90
20422;DHT22;10370;53.102;18.034;2023-09-08T21:04:22;16.80;99.90
20422;DHT22;10370;53.102;18.034;2023-09-08T21:09:45;16.70;99.90
20422;DHT22;10370;53.102;18.034;2023-09-08T21:15:07;16.60;99.90
20422;DHT22;10370;53.102;18.034;2023-09-08T21:20:30;16.60;99.90
20422;DHT22;10370;53.102;18.034;2023-09-08T21:25:52;16.60;99.90
20422;DHT22;10370;53.102;18.034;2023-09-08T21:31:15;16.50;99.90
20422;DHT22;10370;53.102;18.034;2023-09-08T21:36:38;16.40;99.90
20422;DHT22;10370;53.102;18.034;2023-09-08T21:42:01;16.40;99.90
20422;DHT22;10370;53.102;18.034;2023-09-08T21:47:23;16.20;99.90
20422;DHT22;10370;53.102;18.034;2023-09-08T21:52:46;16.10;99.90
20422;DHT22;10370;53.102;18.034;2023-09-08T21:58:09;16.00;99.90
20422;DHT22;10370;53.102;18.034;2023-09-08T22:03:32;15.90;99.90
20422;DHT22;10370;53.102;18.034;2023-09-08T22:08:54;15.80;99.90
20422;DHT22;10370;53.102;18.034;2023-09-08T22:14:17;15.70;99.90
20422;DHT22;10370;53.102;18.034;2023-09-08T22:19:39;15.50;99.90
20422;DHT22;10370;53.102;18.034;2023-09-08T22:25:02;15.50;99.90
20422;DHT22;10370;53.102;18.034;2023-09-08T22:30:25;15.40;99.90
20422;DHT22;10370;53.102;18.034;2023-09-08T22:35:47;15.50;99.90
20422;DHT22;10370;53.102;18.034;2023-09-08T22:41:10;15.40;99.90
20422;DHT22;10370;53.102;18.034;2023-09-08T22:46:33;15.30;99.90
20422;DHT22;10370;53.102;18.034;2023-09-08T22:51:55;15.20;99.90
20422;DHT22;10370;53.102;18.034;2023-09-08T22:57:18;15.20;99.90
20422;DHT22;10370;53.102;18.034;2023-09-08T23:02:41;15.20;99.90
20422;DHT22;10370;53.102;18.034;2023-09-08T23:08:05;15.20;99.90
20422;DHT22;10370;53.102;18.034;2023-09-08T23:13:27;15.10;99.90
20422;DHT22;10370;53.102;18.034;2023-09-08T23:18:50;15.00;99.90
20422;DHT22;10370;53.102;18.034;2023-09-08T23:24:13;14.90;99.90
20422;DHT22;10370;53.102;18.034;2023-09-08T23:29:36;14.90;99.90
20422;DHT22;10370;53.102;18.034;2023-09-08T23:34:59;14.90;99.90
20422;DHT22;10370;53.102;18.034;2023-09-08T23:40:24;14.70;99.90
20422;DHT22;10370;53.102;18.034;2023-09-08T23:45:47;14.70;99.90
20422;DHT22;10370;53.102;18.034;2023-09-08T23:51:10;14.70;99.90
20422;DHT22;10370;53.102;18.034;2023-09-08T23:56:32;14.70;99.90
